sensor_id;sensor_type;location;lat;lon;timestamp;temperature;humidity
20881;DHT22;10600;53.096;8.802;2024-03-08T00:00:58;2.40;99.90
20881;DHT22;10600;53.096;8.802;2024-03-08T00:01:58;2.40;99.90
20881;DHT22;10600;53.096;8.802;2024-03-08T00:03:02;2.30;99.90
20881;DHT22;10600;53.096;8.802;2024-03-08T00:04:03;2.40;99.90
20881;DHT22;10600;53.096;8.802;2024-03-08T00:05:05;2.40;99.90
20881;DHT22;10600;53.096;8.802;2024-03-08T00:06:14;2.40;99.90
20881;DHT22;10600;53.096;8.802;2024-03-08T00:07:16;2.30;99.90
20881;DHT22;10600;53.096;8.802;2024-03-08T00:08:16;2.30;99.90
20881;DHT22;10600;53.096;8.802;2024-03-08T00:09:17;2.30;99.90
20881;DHT22;10600;53.096;8.802;2024-03-08T00:10:17;2.30;99.90
20881;DHT22;10600;53.096;8.802;2024-03-08T00:11:18;2.30;99.90
20881;DHT22;10600;53.096;8.802;2024-03-08T00:12:19;2.30;99.90
20881;DHT22;10600;53.096;8.802;2024-03-08T00:13:20;2.30;99.90
20881;DHT22;10600;53.096;8.802;2024-03-08T00:14:21;2.30;99.90
20881;DHT22;10600;53.096;8.802;2024-03-08T00:15:22;2.30;99.90
20881;DHT22;10600;53.096;8.802;2024-03-08T00:16:23;2.30;99.90
20881;DHT22;10600;53.096;8.802;2024-03-08T00:17:24;2.30;99.90
20881;DHT22;10600;53.096;8.802;2024-03-08T00:18:25;2.30;99.90
20881;DHT22;10600;53.096;8.802;2024-03-08T00:19:25;2.30;99.90
20881;DHT22;10600;53.096;8.802;2024-03-08T00:20:26;2.30;99.90
20881;DHT22;10600;53.096;8.802;2024-03-08T00:21:27;2.30;99.90
20881;DHT22;10600;53.096;8.802;2024-03-08T00:22:27;2.20;99.90
20881;DHT22;10600;53.096;8.802;2024-03-08T00:23:30;2.20;99.90
20881;DHT22;10600;53.096;8.802;2024-03-08T00:24:32;2.20;99.90
20881;DHT22;10600;53.096;8.802;2024-03-08T00:25:32;2.20;99.90
20881;DHT22;10600;53.096;8.802;2024-03-08T00:26:34;2.20;99.90
20881;DHT22;10600;53.096;8.802;2024-03-08T00:27:35;2.30;99.90
20881;DHT22;10600;53.096;8.802;2024-03-08T00:28:36;2.20;99.90
20881;DHT22;10600;53.096;8.802;2024-03-08T00:29:36;2.20;99.90
20881;DHT22;10600;53.096;8.802;2024-03-08T00:30:39;2.20;99.90
20881;DHT22;10600;53.096;8.802;2024-03-08T00:31:40;2.20;99.90
20881;DHT22;10600;53.096;8.802;2024-03-08T00:32:40;2.20;99.90
20881;DHT22;10600;53.096;8.802;2024-03-08T00:33:41;2.20;99.90
20881;DHT22;10600;53.096;8.802;2024-03-08T00:34:41;2.10;99.90
20881;DHT22;10600;53.096;8.802;2024-03-08T00:35:43;2.20;99.90
20881;DHT22;10600;53.096;8.802;2024-03-08T00:36:43;2.10;99.90
20881;DHT22;10600;53.096;8.802;2024-03-08T00:37:44;2.10;99.90
20881;DHT22;10600;53.096;8.802;2024-03-08T00:38:47;2.10;99.90
20881;DHT22;10600;53.096;8.802;2024-03-08T00:39:51;2.10;99.90
20881;DHT22;10600;53.096;8.802;2024-03-08T00:40:52;2.10;99.90
20881;DHT22;10600;53.096;8.802;2024-03-08T00:41:52;2.10;99.90
20881;DHT22;10600;53.096;8.802;2024-03-08T00:42:53;2.10;99.90
20881;DHT22;10600;53.096;8.802;2024-03-08T00:43:53;2.00;99.90
20881;DHT22;10600;53.096;8.802;2024-03-08T00:44:54;2.00;99.90
20881;DHT22;10600;53.096;8.802;2024-03-08T00:45:54;2.00;99.90
20881;DHT22;10600;53.096;8.802;2024-03-08T00:46:56;2.00;99.90
20881;DHT22;10600;53.096;8.802;2024-03-08T00:47:56;2.00;99.90
20881;DHT22;10600;53.096;8.802;2024-03-08T00:48:57;2.00;99.90
20881;DHT22;10600;53.096;8.802;2024-03-08T00:49:58;2.00;99.90
20881;DHT22;10600;53.096;8.802;2024-03-08T00:50:58;2.00;99.90
20881;DHT22;10600;53.096;8.802;2024-03-08T00:51:59;1.90;99.90
20881;DHT22;10600;53.096;8.802;2024-03-08T00:52:59;2.00;99.90
20881;DHT22;10600;53.096;8.802;2024-03-08T00:54:00;1.90;99.90
20881;DHT22;10600;53.096;8.802;2024-03-08T00:55:01;1.90;99.90
20881;DHT22;10600;53.096;8.802;2024-03-08T00:56:02;1.90;99.90
20881;DHT22;10600;53.096;8.802;2024-03-08T00:57:03;1.90;99.90
20881;DHT22;10600;53.096;8.802;2024-03-08T00:58:04;1.90;99.90
20881;DHT22;10600;53.096;8.802;2024-03-08T00:59:06;1.90;99.90
20881;DHT22;10600;53.096;8.802;2024-03-08T01:00:07;1.90;99.90
20881;DHT22;10600;53.096;8.802;2024-03-08T01:01:13;1.80;99.90
20881;DHT22;10600;53.096;8.802;2024-03-08T01:02:16;1.80;99.90
20881;DHT22;10600;53.096;8.802;2024-03-08T01:03:19;1.80;99.90
20881;DHT22;10600;53.096;8.802;2024-03-08T01:04:19;1.80;99.90
20881;DHT22;10600;53.096;8.802;2024-03-08T01:05:22;1.80;99.90
20881;DHT22;10600;53.096;8.802;2024-03-08T01:06:24;1.80;99.90
20881;DHT22;10600;53.096;8.802;2024-03-08T01:07:25;1.80;99.90
20881;DHT22;10600;53.096;8.802;2024-03-08T01:08:25;1.70;99.90
20881;DHT22;10600;53.096;8.802;2024-03-08T01:09:26;1.70;99.90
20881;DHT22;10600;53.096;8.802;2024-03-08T01:10:27;1.70;99.90
20881;DHT22;10600;53.096;8.802;2024-03-08T01:11:28;1.70;99.90
20881;DHT22;10600;53.096;8.802;2024-03-08T01:12:28;1.70;99.90
20881;DHT22;10600;53.096;8.802;2024-03-08T01:13:29;1.70;99.90
20881;DHT22;10600;53.096;8.802;2024-03-08T01:14:30;1.70;99.90
20881;DHT22;10600;53.096;8.802;2024-03-08T01:15:31;1.70;99.90
20881;DHT22;10600;53.096;8.802;2024-03-08T01:16:32;1.70;99.90
20881;DHT22;10600;53.096;8.802;2024-03-08T01:17:33;1.70;99.90
20881;DHT22;10600;53.096;8.802;2024-03-08T01:18:34;1.70;99.90
20881;DHT22;10600;53.096;8.802;2024-03-08T01:19:35;1.60;99.90
20881;DHT22;10600;53.096;8.802;2024-03-08T01:20:35;1.60;99.90
20881;DHT22;10600;53.096;8.802;2024-03-08T01:21:36;1.60;99.90
20881;DHT22;10600;53.096;8.802;2024-03-08T01:22:36;1.60;99.90
20881;DHT22;10600;53.096;8.802;2024-03-08T01:23:37;1.60;99.90
20881;DHT22;10600;53.096;8.802;2024-03-08T01:24:38;1.60;99.90
20881;DHT22;10600;53.096;8.802;2024-03-08T01:25:39;1.60;99.90
20881;DHT22;10600;53.096;8.802;2024-03-08T01:26:39;1.60;99.90
20881;DHT22;10600;53.096;8.802;2024-03-08T01:27:40;1.60;99.90
20881;DHT22;10600;53.096;8.802;2024-03-08T01:28:41;1.60;99.90
20881;DHT22;10600;53.096;8.802;2024-03-08T01:29:41;1.60;99.90
20881;DHT22;10600;53.096;8.802;2024-03-08T01:30:42;1.50;99.90
20881;DHT22;10600;53.096;8.802;2024-03-08T01:31:43;1.60;99.90
20881;DHT22;10600;53.096;8.802;2024-03-08T01:32:43;1.50;99.90
20881;DHT22;10600;53.096;8.802;2024-03-08T01:33:44;1.60;99.90
20881;DHT22;10600;53.096;8.802;2024-03-08T01:34:44;1.50;99.90
20881;DHT22;10600;53.096;8.802;2024-03-08T01:35:45;1.50;99.90
20881;DHT22;10600;53.096;8.802;2024-03-08T01:36:46;1.50;99.90
20881;DHT22;10600;53.096;8.802;2024-03-08T01:37:46;1.50;99.90
20881;DHT22;10600;53.096;8.802;2024-03-08T01:38:48;1.50;99.90
20881;DHT22;10600;53.096;8.802;2024-03-08T01:39:48;1.50;99.90
20881;DHT22;10600;53.096;8.802;2024-03-08T01:40:49;1.50;99.90
20881;DHT22;10600;53.096;8.802;2024-03-08T01:41:50;1.50;99.90
20881;DHT22;10600;53.096;8.802;2024-03-08T01:42:50;1.50;99.90
20881;DHT22;10600;53.096;8.802;2024-03-08T01:43:51;1.50;99.90
20881;DHT22;10600;53.096;8.802;2024-03-08T01:44:53;1.50;99.90
20881;DHT22;10600;53.096;8.802;2024-03-08T01:45:58;1.50;99.90
20881;DHT22;10600;53.096;8.802;2024-03-08T01:47:00;1.50;99.90
20881;DHT22;10600;53.096;8.802;2024-03-08T01:48:01;1.40;99.90
20881;DHT22;10600;53.096;8.802;2024-03-08T01:49:02;1.40;99.90
20881;DHT22;10600;53.096;8.802;2024-03-08T01:50:04;1.40;99.90
20881;DHT22;10600;53.096;8.802;2024-03-08T01:51:06;1.40;99.90
20881;DHT22;10600;53.096;8.802;2024-03-08T01:52:07;1.40;99.90
20881;DHT22;10600;53.096;8.802;2024-03-08T01:53:08;1.40;99.90
20881;DHT22;10600;53.096;8.802;2024-03-08T01:54:10;1.40;99.90
20881;DHT22;10600;53.096;8.802;2024-03-08T01:55:11;1.40;99.90
20881;DHT22;10600;53.096;8.802;2024-03-08T01:56:14;1.40;99.90
20881;DHT22;10600;53.096;8.802;2024-03-08T01:57:15;1.40;99.90
20881;DHT22;10600;53.096;8.802;2024-03-08T01:58:16;1.40;99.90
20881;DHT22;10600;53.096;8.802;2024-03-08T01:59:17;1.40;99.90
20881;DHT22;10600;53.096;8.802;2024-03-08T02:00:18;1.40;99.90
20881;DHT22;10600;53.096;8.802;2024-03-08T02:01:21;1.40;99.90
20881;DHT22;10600;53.096;8.802;2024-03-08T02:02:22;1.40;99.90
20881;DHT22;10600;53.096;8.802;2024-03-08T02:03:22;1.40;99.90
20881;DHT22;10600;53.096;8.802;2024-03-08T02:04:23;1.30;99.90
20881;DHT22;10600;53.096;8.802;2024-03-08T02:05:25;1.30;99.90
20881;DHT22;10600;53.096;8.802;2024-03-08T02:06:26;1.30;99.90
20881;DHT22;10600;53.096;8.802;2024-03-08T02:07:26;1.40;99.90
20881;DHT22;10600;53.096;8.802;2024-03-08T02:08:27;1.30;99.90
20881;DHT22;10600;53.096;8.802;2024-03-08T02:09:27;1.30;99.90
20881;DHT22;10600;53.096;8.802;2024-03-08T02:10:28;1.30;99.90
20881;DHT22;10600;53.096;8.802;2024-03-08T02:11:29;1.30;99.90
20881;DHT22;10600;53.096;8.802;2024-03-08T02:12:29;1.30;99.90
20881;DHT22;10600;53.096;8.802;2024-03-08T02:13:30;1.30;99.90
20881;DHT22;10600;53.096;8.802;2024-03-08T02:14:30;1.30;99.90
20881;DHT22;10600;53.096;8.802;2024-03-08T02:15:57;1.30;99.90
20881;DHT22;10600;53.096;8.802;2024-03-08T02:17:02;1.30;99.90
20881;DHT22;10600;53.096;8.802;2024-03-08T02:18:03;1.30;99.90
20881;DHT22;10600;53.096;8.802;2024-03-08T02:19:04;1.30;99.90
20881;DHT22;10600;53.096;8.802;2024-03-08T02:20:07;1.30;99.90
20881;DHT22;10600;53.096;8.802;2024-03-08T02:21:09;1.20;99.90
20881;DHT22;10600;53.096;8.802;2024-03-08T02:22:10;1.30;99.90
20881;DHT22;10600;53.096;8.802;2024-03-08T02:23:10;1.30;99.90
20881;DHT22;10600;53.096;8.802;2024-03-08T02:24:11;1.30;99.90
20881;DHT22;10600;53.096;8.802;2024-03-08T02:25:11;1.30;99.90
20881;DHT22;10600;53.096;8.802;2024-03-08T02:26:12;1.20;99.90
20881;DHT22;10600;53.096;8.802;2024-03-08T02:27:12;1.20;99.90
20881;DHT22;10600;53.096;8.802;2024-03-08T02:28:13;1.20;99.90
20881;DHT22;10600;53.096;8.802;2024-03-08T02:29:14;1.20;99.90
20881;DHT22;10600;53.096;8.802;2024-03-08T02:30:15;1.30;99.90
20881;DHT22;10600;53.096;8.802;2024-03-08T02:31:18;1.30;99.90
20881;DHT22;10600;53.096;8.802;2024-03-08T02:32:18;1.30;99.90
20881;DHT22;10600;53.096;8.802;2024-03-08T02:33:19;1.30;99.90
20881;DHT22;10600;53.096;8.802;2024-03-08T02:34:20;1.30;99.90
20881;DHT22;10600;53.096;8.802;2024-03-08T02:35:20;1.20;99.90
20881;DHT22;10600;53.096;8.802;2024-03-08T02:36:21;1.30;99.90
20881;DHT22;10600;53.096;8.802;2024-03-08T02:37:21;1.30;99.90
20881;DHT22;10600;53.096;8.802;2024-03-08T02:38:23;1.30;99.90
20881;DHT22;10600;53.096;8.802;2024-03-08T02:39:24;1.30;99.90
20881;DHT22;10600;53.096;8.802;2024-03-08T02:40:25;1.30;99.90
20881;DHT22;10600;53.096;8.802;2024-03-08T02:41:25;1.30;99.90
20881;DHT22;10600;53.096;8.802;2024-03-08T02:42:26;1.20;99.90
20881;DHT22;10600;53.096;8.802;2024-03-08T02:43:26;1.20;99.90
20881;DHT22;10600;53.096;8.802;2024-03-08T02:44:27;1.20;99.90
20881;DHT22;10600;53.096;8.802;2024-03-08T02:45:28;1.20;99.90
20881;DHT22;10600;53.096;8.802;2024-03-08T02:46:28;1.20;99.90
20881;DHT22;10600;53.096;8.802;2024-03-08T02:47:30;1.20;99.90
20881;DHT22;10600;53.096;8.802;2024-03-08T02:48:31;1.20;99.90
20881;DHT22;10600;53.096;8.802;2024-03-08T02:49:32;1.20;99.90
20881;DHT22;10600;53.096;8.802;2024-03-08T02:50:32;1.20;99.90
20881;DHT22;10600;53.096;8.802;2024-03-08T02:51:35;1.20;99.90
20881;DHT22;10600;53.096;8.802;2024-03-08T02:52:36;1.20;99.90
20881;DHT22;10600;53.096;8.802;2024-03-08T02:53:36;1.20;99.90
20881;DHT22;10600;53.096;8.802;2024-03-08T02:54:38;1.20;99.90
20881;DHT22;10600;53.096;8.802;2024-03-08T02:55:39;1.20;99.90
20881;DHT22;10600;53.096;8.802;2024-03-08T02:56:41;1.20;99.90
20881;DHT22;10600;53.096;8.802;2024-03-08T02:57:42;1.10;99.90
20881;DHT22;10600;53.096;8.802;2024-03-08T02:58:44;1.10;99.90
20881;DHT22;10600;53.096;8.802;2024-03-08T02:59:48;1.20;99.90
20881;DHT22;10600;53.096;8.802;2024-03-08T03:00:49;1.10;99.90
20881;DHT22;10600;53.096;8.802;2024-03-08T03:01:50;1.10;99.90
20881;DHT22;10600;53.096;8.802;2024-03-08T03:02:51;1.20;99.90
20881;DHT22;10600;53.096;8.802;2024-03-08T03:03:54;1.10;99.90
20881;DHT22;10600;53.096;8.802;2024-03-08T03:04:55;1.10;99.90
20881;DHT22;10600;53.096;8.802;2024-03-08T03:05:56;1.10;99.90
20881;DHT22;10600;53.096;8.802;2024-03-08T03:06:56;1.10;99.90
20881;DHT22;10600;53.096;8.802;2024-03-08T03:07:57;1.10;99.90
20881;DHT22;10600;53.096;8.802;2024-03-08T03:08:59;1.10;99.90
20881;DHT22;10600;53.096;8.802;2024-03-08T03:10:00;1.10;99.90
20881;DHT22;10600;53.096;8.802;2024-03-08T03:11:00;1.10;99.90
20881;DHT22;10600;53.096;8.802;2024-03-08T03:12:01;1.10;99.90
20881;DHT22;10600;53.096;8.802;2024-03-08T03:13:03;1.10;99.90
20881;DHT22;10600;53.096;8.802;2024-03-08T03:14:04;1.10;99.90
20881;DHT22;10600;53.096;8.802;2024-03-08T03:15:07;1.10;99.90
20881;DHT22;10600;53.096;8.802;2024-03-08T03:16:08;1.10;99.90
20881;DHT22;10600;53.096;8.802;2024-03-08T03:17:10;1.10;99.90
20881;DHT22;10600;53.096;8.802;2024-03-08T03:18:11;1.10;99.90
20881;DHT22;10600;53.096;8.802;2024-03-08T03:19:12;1.10;99.90
20881;DHT22;10600;53.096;8.802;2024-03-08T03:20:13;1.10;99.90
20881;DHT22;10600;53.096;8.802;2024-03-08T03:21:14;1.10;99.90
20881;DHT22;10600;53.096;8.802;2024-03-08T03:22:15;1.10;99.90
20881;DHT22;10600;53.096;8.802;2024-03-08T03:23:16;1.10;99.90
20881;DHT22;10600;53.096;8.802;2024-03-08T03:24:20;1.10;99.90
20881;DHT22;10600;53.096;8.802;2024-03-08T03:25:21;1.20;99.90
20881;DHT22;10600;53.096;8.802;2024-03-08T03:26:25;1.10;99.90
20881;DHT22;10600;53.096;8.802;2024-03-08T03:27:26;1.20;99.90
20881;DHT22;10600;53.096;8.802;2024-03-08T03:28:26;1.20;99.90
20881;DHT22;10600;53.096;8.802;2024-03-08T03:29:28;1.20;99.90
20881;DHT22;10600;53.096;8.802;2024-03-08T03:30:30;1.20;99.90
20881;DHT22;10600;53.096;8.802;2024-03-08T03:31:33;1.10;99.90
20881;DHT22;10600;53.096;8.802;2024-03-08T03:32:34;1.20;99.90
20881;DHT22;10600;53.096;8.802;2024-03-08T03:33:43;1.20;99.90
20881;DHT22;10600;53.096;8.802;2024-03-08T03:34:44;1.20;99.90
20881;DHT22;10600;53.096;8.802;2024-03-08T03:35:44;1.20;99.90
20881;DHT22;10600;53.096;8.802;2024-03-08T03:36:46;1.10;99.90
20881;DHT22;10600;53.096;8.802;2024-03-08T03:37:47;1.10;99.90
20881;DHT22;10600;53.096;8.802;2024-03-08T03:39:23;1.10;99.90
20881;DHT22;10600;53.096;8.802;2024-03-08T03:40:24;1.10;99.90
20881;DHT22;10600;53.096;8.802;2024-03-08T03:41:25;1.10;99.90
20881;DHT22;10600;53.096;8.802;2024-03-08T03:42:26;1.10;99.90
20881;DHT22;10600;53.096;8.802;2024-03-08T03:43:27;1.10;99.90
20881;DHT22;10600;53.096;8.802;2024-03-08T03:44:30;1.10;99.90
20881;DHT22;10600;53.096;8.802;2024-03-08T03:45:31;1.10;99.90
20881;DHT22;10600;53.096;8.802;2024-03-08T03:46:35;1.10;99.90
20881;DHT22;10600;53.096;8.802;2024-03-08T03:47:36;1.10;99.90
20881;DHT22;10600;53.096;8.802;2024-03-08T03:48:36;1.10;99.90
20881;DHT22;10600;53.096;8.802;2024-03-08T03:49:37;1.10;99.90
20881;DHT22;10600;53.096;8.802;2024-03-08T03:50:40;1.10;99.90
20881;DHT22;10600;53.096;8.802;2024-03-08T03:51:40;1.10;99.90
20881;DHT22;10600;53.096;8.802;2024-03-08T03:52:41;1.10;99.90
20881;DHT22;10600;53.096;8.802;2024-03-08T03:53:42;1.00;99.90
20881;DHT22;10600;53.096;8.802;2024-03-08T03:54:43;1.00;99.90
20881;DHT22;10600;53.096;8.802;2024-03-08T03:55:43;1.00;99.90
20881;DHT22;10600;53.096;8.802;2024-03-08T03:56:44;1.00;99.90
20881;DHT22;10600;53.096;8.802;2024-03-08T03:57:45;1.00;99.90
20881;DHT22;10600;53.096;8.802;2024-03-08T03:58:46;1.00;99.90
20881;DHT22;10600;53.096;8.802;2024-03-08T03:59:46;1.00;99.90
20881;DHT22;10600;53.096;8.802;2024-03-08T04:00:48;1.00;99.90
20881;DHT22;10600;53.096;8.802;2024-03-08T04:01:49;1.00;99.90
20881;DHT22;10600;53.096;8.802;2024-03-08T04:02:49;1.00;99.90
20881;DHT22;10600;53.096;8.802;2024-03-08T04:03:51;1.00;99.90
20881;DHT22;10600;53.096;8.802;2024-03-08T04:04:53;1.00;99.90
20881;DHT22;10600;53.096;8.802;2024-03-08T04:05:55;1.00;99.90
20881;DHT22;10600;53.096;8.802;2024-03-08T04:06:55;1.00;99.90
20881;DHT22;10600;53.096;8.802;2024-03-08T04:07:56;0.90;99.90
20881;DHT22;10600;53.096;8.802;2024-03-08T04:08:57;0.90;99.90
20881;DHT22;10600;53.096;8.802;2024-03-08T04:09:57;1.00;99.90
20881;DHT22;10600;53.096;8.802;2024-03-08T04:10:58;0.90;99.90
20881;DHT22;10600;53.096;8.802;2024-03-08T04:11:58;0.90;99.90
20881;DHT22;10600;53.096;8.802;2024-03-08T04:12:59;0.90;99.90
20881;DHT22;10600;53.096;8.802;2024-03-08T04:13:59;0.90;99.90
20881;DHT22;10600;53.096;8.802;2024-03-08T04:15:00;0.90;99.90
20881;DHT22;10600;53.096;8.802;2024-03-08T04:16:01;0.90;99.90
20881;DHT22;10600;53.096;8.802;2024-03-08T04:17:02;0.90;99.90
20881;DHT22;10600;53.096;8.802;2024-03-08T04:18:03;0.90;99.90
20881;DHT22;10600;53.096;8.802;2024-03-08T04:19:04;0.90;99.90
20881;DHT22;10600;53.096;8.802;2024-03-08T04:20:06;0.90;99.90
20881;DHT22;10600;53.096;8.802;2024-03-08T04:21:10;0.90;99.90
20881;DHT22;10600;53.096;8.802;2024-03-08T04:22:11;0.80;99.90
20881;DHT22;10600;53.096;8.802;2024-03-08T04:23:12;0.80;99.90
20881;DHT22;10600;53.096;8.802;2024-03-08T04:24:12;0.80;99.90
20881;DHT22;10600;53.096;8.802;2024-03-08T04:25:13;0.80;99.90
20881;DHT22;10600;53.096;8.802;2024-03-08T04:26:13;0.80;99.90
20881;DHT22;10600;53.096;8.802;2024-03-08T04:27:14;0.80;99.90
20881;DHT22;10600;53.096;8.802;2024-03-08T04:28:15;0.90;99.90
20881;DHT22;10600;53.096;8.802;2024-03-08T04:29:15;0.80;99.90
20881;DHT22;10600;53.096;8.802;2024-03-08T04:30:17;0.90;99.90
20881;DHT22;10600;53.096;8.802;2024-03-08T04:31:18;0.90;99.90
20881;DHT22;10600;53.096;8.802;2024-03-08T04:32:18;0.90;99.90
20881;DHT22;10600;53.096;8.802;2024-03-08T04:33:19;0.80;99.90
20881;DHT22;10600;53.096;8.802;2024-03-08T04:34:21;0.80;99.90
20881;DHT22;10600;53.096;8.802;2024-03-08T04:35:21;0.80;99.90
20881;DHT22;10600;53.096;8.802;2024-03-08T04:36:22;0.80;99.90
20881;DHT22;10600;53.096;8.802;2024-03-08T04:37:23;0.80;99.90
20881;DHT22;10600;53.096;8.802;2024-03-08T04:38:25;0.80;99.90
20881;DHT22;10600;53.096;8.802;2024-03-08T04:39:25;0.80;99.90
20881;DHT22;10600;53.096;8.802;2024-03-08T04:40:28;0.80;99.90
20881;DHT22;10600;53.096;8.802;2024-03-08T04:41:29;0.80;99.90
20881;DHT22;10600;53.096;8.802;2024-03-08T04:42:30;0.80;99.90
20881;DHT22;10600;53.096;8.802;2024-03-08T04:43:34;0.80;99.90
20881;DHT22;10600;53.096;8.802;2024-03-08T04:44:34;0.80;99.90
20881;DHT22;10600;53.096;8.802;2024-03-08T04:45:35;0.80;99.90
20881;DHT22;10600;53.096;8.802;2024-03-08T04:46:35;0.80;99.90
20881;DHT22;10600;53.096;8.802;2024-03-08T04:47:36;0.80;99.90
20881;DHT22;10600;53.096;8.802;2024-03-08T04:48:37;0.80;99.90
20881;DHT22;10600;53.096;8.802;2024-03-08T04:49:37;0.80;99.90
20881;DHT22;10600;53.096;8.802;2024-03-08T04:50:38;0.80;99.90
20881;DHT22;10600;53.096;8.802;2024-03-08T04:51:39;0.80;99.90
20881;DHT22;10600;53.096;8.802;2024-03-08T04:52:40;0.80;99.90
20881;DHT22;10600;53.096;8.802;2024-03-08T04:53:41;0.80;99.90
20881;DHT22;10600;53.096;8.802;2024-03-08T04:54:43;0.80;99.90
20881;DHT22;10600;53.096;8.802;2024-03-08T04:55:44;0.80;99.90
20881;DHT22;10600;53.096;8.802;2024-03-08T04:56:45;0.80;99.90
20881;DHT22;10600;53.096;8.802;2024-03-08T04:57:46;0.80;99.90
20881;DHT22;10600;53.096;8.802;2024-03-08T04:58:47;0.80;99.90
20881;DHT22;10600;53.096;8.802;2024-03-08T04:59:48;0.80;99.90
20881;DHT22;10600;53.096;8.802;2024-03-08T05:00:48;0.80;99.90
20881;DHT22;10600;53.096;8.802;2024-03-08T05:01:49;0.80;99.90
20881;DHT22;10600;53.096;8.802;2024-03-08T05:02:50;0.80;99.90
20881;DHT22;10600;53.096;8.802;2024-03-08T05:03:53;0.80;99.90
20881;DHT22;10600;53.096;8.802;2024-03-08T05:04:55;0.80;99.90
20881;DHT22;10600;53.096;8.802;2024-03-08T05:05:56;0.80;99.90
20881;DHT22;10600;53.096;8.802;2024-03-08T05:06:56;0.80;99.90
20881;DHT22;10600;53.096;8.802;2024-03-08T05:07:57;0.70;99.90
20881;DHT22;10600;53.096;8.802;2024-03-08T05:08:58;0.80;99.90
20881;DHT22;10600;53.096;8.802;2024-03-08T05:09:59;0.70;99.90
20881;DHT22;10600;53.096;8.802;2024-03-08T05:11:00;0.70;99.90
20881;DHT22;10600;53.096;8.802;2024-03-08T05:12:04;0.70;99.90
20881;DHT22;10600;53.096;8.802;2024-03-08T05:13:04;0.80;99.90
20881;DHT22;10600;53.096;8.802;2024-03-08T05:14:05;0.70;99.90
20881;DHT22;10600;53.096;8.802;2024-03-08T05:15:06;0.80;99.90
20881;DHT22;10600;53.096;8.802;2024-03-08T05:16:07;0.70;99.90
20881;DHT22;10600;53.096;8.802;2024-03-08T05:17:08;0.70;99.90
20881;DHT22;10600;53.096;8.802;2024-03-08T05:18:09;0.70;99.90
20881;DHT22;10600;53.096;8.802;2024-03-08T05:19:11;0.70;99.90
20881;DHT22;10600;53.096;8.802;2024-03-08T05:20:12;0.70;99.90
20881;DHT22;10600;53.096;8.802;2024-03-08T05:21:13;0.70;99.90
20881;DHT22;10600;53.096;8.802;2024-03-08T05:22:14;0.70;99.90
20881;DHT22;10600;53.096;8.802;2024-03-08T05:23:14;0.70;99.90
20881;DHT22;10600;53.096;8.802;2024-03-08T05:24:16;0.70;99.90
20881;DHT22;10600;53.096;8.802;2024-03-08T05:25:16;0.70;99.90
20881;DHT22;10600;53.096;8.802;2024-03-08T05:26:18;0.70;99.90
20881;DHT22;10600;53.096;8.802;2024-03-08T05:27:18;0.60;99.90
20881;DHT22;10600;53.096;8.802;2024-03-08T05:28:19;0.60;99.90
20881;DHT22;10600;53.096;8.802;2024-03-08T05:29:20;0.60;99.90
20881;DHT22;10600;53.096;8.802;2024-03-08T05:30:20;0.60;99.90
20881;DHT22;10600;53.096;8.802;2024-03-08T05:31:22;0.60;99.90
20881;DHT22;10600;53.096;8.802;2024-03-08T05:32:23;0.60;99.90
20881;DHT22;10600;53.096;8.802;2024-03-08T05:33:25;0.60;99.90
20881;DHT22;10600;53.096;8.802;2024-03-08T05:34:25;0.60;99.90
20881;DHT22;10600;53.096;8.802;2024-03-08T05:35:28;0.60;99.90
20881;DHT22;10600;53.096;8.802;2024-03-08T05:36:29;0.60;99.90
20881;DHT22;10600;53.096;8.802;2024-03-08T05:37:32;0.60;99.90
20881;DHT22;10600;53.096;8.802;2024-03-08T05:38:33;0.60;99.90
20881;DHT22;10600;53.096;8.802;2024-03-08T05:39:34;0.60;99.90
20881;DHT22;10600;53.096;8.802;2024-03-08T05:40:34;0.60;99.90
20881;DHT22;10600;53.096;8.802;2024-03-08T05:41:35;0.60;99.90
20881;DHT22;10600;53.096;8.802;2024-03-08T05:42:35;0.60;99.90
20881;DHT22;10600;53.096;8.802;2024-03-08T05:43:36;0.60;99.90
20881;DHT22;10600;53.096;8.802;2024-03-08T05:44:37;0.60;99.90
20881;DHT22;10600;53.096;8.802;2024-03-08T05:45:38;0.60;99.90
20881;DHT22;10600;53.096;8.802;2024-03-08T05:46:39;0.60;99.90
20881;DHT22;10600;53.096;8.802;2024-03-08T05:47:40;0.60;99.90
20881;DHT22;10600;53.096;8.802;2024-03-08T05:48:40;0.60;99.90
20881;DHT22;10600;53.096;8.802;2024-03-08T05:49:41;0.60;99.90
20881;DHT22;10600;53.096;8.802;2024-03-08T05:50:44;0.60;99.90
20881;DHT22;10600;53.096;8.802;2024-03-08T05:51:45;0.60;99.90
20881;DHT22;10600;53.096;8.802;2024-03-08T05:52:47;0.60;99.90
20881;DHT22;10600;53.096;8.802;2024-03-08T05:53:48;0.60;99.90
20881;DHT22;10600;53.096;8.802;2024-03-08T05:54:48;0.60;99.90
20881;DHT22;10600;53.096;8.802;2024-03-08T05:55:49;0.60;99.90
20881;DHT22;10600;53.096;8.802;2024-03-08T05:56:50;0.60;99.90
20881;DHT22;10600;53.096;8.802;2024-03-08T05:57:53;0.60;99.90
20881;DHT22;10600;53.096;8.802;2024-03-08T05:58:54;0.60;99.90
20881;DHT22;10600;53.096;8.802;2024-03-08T05:59:55;0.60;99.90
20881;DHT22;10600;53.096;8.802;2024-03-08T06:00:56;0.60;99.90
20881;DHT22;10600;53.096;8.802;2024-03-08T06:01:56;0.60;99.90
20881;DHT22;10600;53.096;8.802;2024-03-08T06:02:58;0.60;99.90
20881;DHT22;10600;53.096;8.802;2024-03-08T06:03:59;0.60;99.90
20881;DHT22;10600;53.096;8.802;2024-03-08T06:04:59;0.60;99.90
20881;DHT22;10600;53.096;8.802;2024-03-08T06:06:02;0.60;99.90
20881;DHT22;10600;53.096;8.802;2024-03-08T06:07:03;0.60;99.90
20881;DHT22;10600;53.096;8.802;2024-03-08T06:08:04;0.60;99.90
20881;DHT22;10600;53.096;8.802;2024-03-08T06:09:05;0.60;99.90
20881;DHT22;10600;53.096;8.802;2024-03-08T06:10:18;0.60;99.90
20881;DHT22;10600;53.096;8.802;2024-03-08T06:11:20;0.60;99.90
20881;DHT22;10600;53.096;8.802;2024-03-08T06:12:20;0.60;99.90
20881;DHT22;10600;53.096;8.802;2024-03-08T06:13:21;0.60;99.90
20881;DHT22;10600;53.096;8.802;2024-03-08T06:14:22;0.60;99.90
20881;DHT22;10600;53.096;8.802;2024-03-08T06:15:23;0.60;99.90
20881;DHT22;10600;53.096;8.802;2024-03-08T06:16:24;0.60;99.90
20881;DHT22;10600;53.096;8.802;2024-03-08T06:17:25;0.60;99.90
20881;DHT22;10600;53.096;8.802;2024-03-08T06:18:26;0.60;99.90
20881;DHT22;10600;53.096;8.802;2024-03-08T06:19:26;0.60;99.90
20881;DHT22;10600;53.096;8.802;2024-03-08T06:20:27;0.60;99.90
20881;DHT22;10600;53.096;8.802;2024-03-08T06:21:27;0.60;99.90
20881;DHT22;10600;53.096;8.802;2024-03-08T06:22:28;0.60;99.90
20881;DHT22;10600;53.096;8.802;2024-03-08T06:23:33;0.60;99.90
20881;DHT22;10600;53.096;8.802;2024-03-08T06:24:34;0.60;99.90
20881;DHT22;10600;53.096;8.802;2024-03-08T06:25:37;0.60;99.90
20881;DHT22;10600;53.096;8.802;2024-03-08T06:26:37;0.60;99.90
20881;DHT22;10600;53.096;8.802;2024-03-08T06:27:38;0.70;99.90
20881;DHT22;10600;53.096;8.802;2024-03-08T06:28:39;0.70;99.90
20881;DHT22;10600;53.096;8.802;2024-03-08T06:29:39;0.70;99.90
20881;DHT22;10600;53.096;8.802;2024-03-08T06:30:40;0.70;99.90
20881;DHT22;10600;53.096;8.802;2024-03-08T06:31:41;0.70;99.90
20881;DHT22;10600;53.096;8.802;2024-03-08T06:32:42;0.70;99.90
20881;DHT22;10600;53.096;8.802;2024-03-08T06:33:43;0.70;99.90